Pioneer Star — H8OT — position and weather

sailwx.info

Track history (hours):
 
Tides and Currents Weather Stations Pressure Air Temp Water Temp Dewpoint Dewpoint Depression Visibility Wind Speed Wind Dir Waves Ship Positions

Pioneer Star

Last reported at 2018-Feb-18 21:58 UTC. Time now 2018-Feb-18 22:12 UTC.
Position N 45°40' E 013°42'.

Length 95 m; draft 5.7 m.

Type: Cargo ship. MMSI: 370801000.

Date/timePositionNaut miles runAvg speedWind from/ knotsBaromVisibWave heightAir tempDewpointWater temp
2018-Feb-18 21:58N 45°40' E 013°42'0 0.0
2018-Feb-18 21:28N 45°40' E 013°42'0 0.0
2018-Feb-18 20:58N 45°40' E 013°42'0 0.0
2018-Feb-18 20:28N 45°40' E 013°42'0 0.0
2018-Feb-18 19:58N 45°40' E 013°42'0 0.0
2018-Feb-18 19:28N 45°40' E 013°42'0 0.0
2018-Feb-18 18:55N 45°40' E 013°42'0 0.0
2018-Feb-18 18:28N 45°40' E 013°42'0 0.0
2018-Feb-18 17:58N 45°40' E 013°42'0 0.0
2018-Feb-18 17:25N 45°40' E 013°42'0 0.0
2018-Feb-18 16:55N 45°40' E 013°42'0 0.0
2018-Feb-18 16:28N 45°40' E 013°42'0 0.0
2018-Feb-18 15:55N 45°40' E 013°42'0 0.0
2018-Feb-18 15:28N 45°40' E 013°42'0 0.0
2018-Feb-18 14:58N 45°40' E 013°42'0 0.0
2018-Feb-18 14:28N 45°40' E 013°42'0 0.0
2018-Feb-18 13:58N 45°40' E 013°42'0 0.0
2018-Feb-18 13:25N 45°40' E 013°42'0 0.0
2018-Feb-18 12:52N 45°40' E 013°42'0 0.0
2018-Feb-18 12:28N 45°40' E 013°42'0 0.1
2018-Feb-18 11:55N 45°40' E 013°42'0 0.0
2018-Feb-18 11:28N 45°40' E 013°43'0 0.1
2018-Feb-18 10:58N 45°40' E 013°43'0 0.1
2018-Feb-18 10:28N 45°40' E 013°43'0 0.0
2018-Feb-18 09:52N 45°40' E 013°43'0 0.0
2018-Feb-18 09:28N 45°40' E 013°43'0 0.0
2018-Feb-18 08:55N 45°40' E 013°43'0 0.0
2018-Feb-18 08:28N 45°40' E 013°43'0 0.0
2018-Feb-18 07:55N 45°40' E 013°43'0 0.1
2018-Feb-18 07:29N 45°40' E 013°43'2 3.8
2018-Feb-18 07:00N 45°39' E 013°41'5 9.7
2018-Feb-18 06:31N 45°36' E 013°35'5 9.9
2018-Feb-18 06:00N 45°33' E 013°29'5 9.9
2018-Feb-18 05:30N 45°31' E 013°23'5 9.8
2018-Feb-18 05:01N 45°27' E 013°18'5 9.8
2018-Feb-18 04:30N 45°24' E 013°14'4 8.7
2018-Feb-18 04:00N 45°19' E 013°13'5 9.8
2018-Feb-18 03:31N 45°14' E 013°14'5 9.7
2018-Feb-18 03:00N 45°10' E 013°15'5 9.6
2018-Feb-18 02:31N 45°05' E 013°18'5 9.5
2018-Feb-18 02:01N 45°01' E 013°20'5 9.6
2018-Feb-18 01:30N 44°56' E 013°23'5 9.8
2018-Feb-18 01:01N 44°52' E 013°26'510.1
2018-Feb-18 00:30N 44°48' E 013°30'510.2
2018-Feb-18 00:00N 44°44' E 013°34'510.5
2018-Feb-17 23:29N 44°39' E 013°38'510.8
2018-Feb-17 23:00N 44°35' E 013°42'610.8
2018-Feb-17 22:29N 44°30' E 013°47'910.6
2018-Feb-17 21:39N 44°23' E 013°53'  
2018-Feb-15 06:33N 38°17' E 022°38'110.6
2018-Feb-15 06:29N 38°18' E 022°38'  
Track history (hours):
 
Tides and Currents Weather Stations Pressure Air Temp Water Temp Dewpoint Dewpoint Depression Visibility Wind Speed Wind Dir Waves Ship Positions

Pioneer Star

Last reported at 2018-Feb-18 21:58 UTC. Time now 2018-Feb-18 22:12 UTC.
Position N 45°40' E 013°42'.

Length 95 m; draft 5.7 m.

Type: Cargo ship. MMSI: 370801000.

Date/timePositionNaut miles runAvg speedWind from/ knotsBaromVisibWave heightAir tempDewpointWater temp
2018-Feb-18 21:58N 45°40' E 013°42'0 0.0
2018-Feb-18 21:28N 45°40' E 013°42'0 0.0
2018-Feb-18 20:58N 45°40' E 013°42'0 0.0
2018-Feb-18 20:28N 45°40' E 013°42'0 0.0
2018-Feb-18 19:58N 45°40' E 013°42'0 0.0
2018-Feb-18 19:28N 45°40' E 013°42'0 0.0
2018-Feb-18 18:55N 45°40' E 013°42'0 0.0
2018-Feb-18 18:28N 45°40' E 013°42'0 0.0
2018-Feb-18 17:58N 45°40' E 013°42'0 0.0
2018-Feb-18 17:25N 45°40' E 013°42'0 0.0
2018-Feb-18 16:55N 45°40' E 013°42'0 0.0
2018-Feb-18 16:28N 45°40' E 013°42'0 0.0
2018-Feb-18 15:55N 45°40' E 013°42'0 0.0
2018-Feb-18 15:28N 45°40' E 013°42'0 0.0
2018-Feb-18 14:58N 45°40' E 013°42'0 0.0
2018-Feb-18 14:28N 45°40' E 013°42'0 0.0
2018-Feb-18 13:58N 45°40' E 013°42'0 0.0
2018-Feb-18 13:25N 45°40' E 013°42'0 0.0
2018-Feb-18 12:52N 45°40' E 013°42'0 0.0
2018-Feb-18 12:28N 45°40' E 013°42'0 0.1
2018-Feb-18 11:55N 45°40' E 013°42'0 0.0
2018-Feb-18 11:28N 45°40' E 013°43'0 0.1
2018-Feb-18 10:58N 45°40' E 013°43'0 0.1
2018-Feb-18 10:28N 45°40' E 013°43'0 0.0
2018-Feb-18 09:52N 45°40' E 013°43'0 0.0
2018-Feb-18 09:28N 45°40' E 013°43'0 0.0
2018-Feb-18 08:55N 45°40' E 013°43'0 0.0
2018-Feb-18 08:28N 45°40' E 013°43'0 0.0
2018-Feb-18 07:55N 45°40' E 013°43'0 0.1
2018-Feb-18 07:29N 45°40' E 013°43'2 3.8
2018-Feb-18 07:00N 45°39' E 013°41'5 9.7
2018-Feb-18 06:31N 45°36' E 013°35'5 9.9
2018-Feb-18 06:00N 45°33' E 013°29'5 9.9
2018-Feb-18 05:30N 45°31' E 013°23'5 9.8
2018-Feb-18 05:01N 45°27' E 013°18'5 9.8
2018-Feb-18 04:30N 45°24' E 013°14'4 8.7
2018-Feb-18 04:00N 45°19' E 013°13'5 9.8
2018-Feb-18 03:31N 45°14' E 013°14'5 9.7
2018-Feb-18 03:00N 45°10' E 013°15'5 9.6
2018-Feb-18 02:31N 45°05' E 013°18'5 9.5
2018-Feb-18 02:01N 45°01' E 013°20'5 9.6
2018-Feb-18 01:30N 44°56' E 013°23'5 9.8
2018-Feb-18 01:01N 44°52' E 013°26'510.1
2018-Feb-18 00:30N 44°48' E 013°30'510.2
2018-Feb-18 00:00N 44°44' E 013°34'510.5
2018-Feb-17 23:29N 44°39' E 013°38'510.8
2018-Feb-17 23:00N 44°35' E 013°42'610.8
2018-Feb-17 22:29N 44°30' E 013°47'910.6
2018-Feb-17 21:39N 44°23' E 013°53'  
2018-Feb-15 06:33N 38°17' E 022°38'110.6
2018-Feb-15 06:29N 38°18' E 022°38'  

Dump ship's entire track history